Time;durP1;ratioP1;P1;durP2;ratioP2;P2;SDS_P1;SDS_P2;PMS_P1;PMS_P2;Temp;Humidity;BMP_temperature;BMP_pressure;BME280_temperature;BME280_humidity;BME280_pressure;Samples;Min_cycle;Max_cycle;Signal;HPM_P1;HPM_P2
2021/09/05 00:01:47;;;;;;;12.90;7.97;;;19.00;99.90;;;;;;4807561;29;20328;-84
2021/09/05 00:04:13;;;;;;;8.50;7.37;;;19.00;99.90;;;;;;4807499;29;20202;-86
2021/09/05 00:06:39;;;;;;;10.23;8.17;;;19.00;99.90;;;;;;4807395;29;20419;-84
2021/09/05 00:09:05;;;;;;;11.50;7.83;;;19.00;99.90;;;;;;4807056;29;20262;-86
2021/09/05 00:11:30;;;;;;;11.07;7.30;;;19.00;99.90;;;;;;4807344;29;20569;-84
2021/09/05 00:13:56;;;;;;;9.10;8.00;;;19.00;99.90;;;;;;4807023;29;20309;-84
2021/09/05 00:16:23;;;;;;;9.60;8.40;;;18.90;99.90;;;;;;4805897;29;20723;-84
2021/09/05 00:18:49;;;;;;;8.40;7.60;;;19.00;99.90;;;;;;4807032;29;20226;-85
2021/09/05 00:21:15;;;;;;;10.63;7.80;;;18.90;99.90;;;;;;4805877;29;20425;-86
2021/09/05 00:23:41;;;;;;;8.80;7.70;;;18.90;99.90;;;;;;4805715;29;20808;-86
2021/09/05 00:26:07;;;;;;;9.80;7.57;;;18.90;99.90;;;;;;4812296;29;20186;-85
2021/09/05 00:28:33;;;;;;;10.40;7.73;;;18.90;99.90;;;;;;4808930;29;20495;-86
2021/09/05 00:31:01;;;;;;;10.63;8.27;;;18.90;99.90;;;;;;4805859;29;20945;-84
2021/09/05 00:33:26;;;;;;;9.50;7.87;;;18.90;99.90;;;;;;4805617;29;20493;-84
2021/09/05 00:35:52;;;;;;;9.57;7.50;;;18.90;99.90;;;;;;4807230;29;20430;-84
2021/09/05 00:38:18;;;;;;;11.67;7.77;;;18.80;99.90;;;;;;4806735;29;20210;-84
2021/09/05 00:40:43;;;;;;;9.00;7.20;;;18.80;99.90;;;;;;4806849;29;20667;-86
2021/09/05 00:43:09;;;;;;;11.00;8.63;;;18.80;99.90;;;;;;4805524;29;20178;-84
2021/09/05 00:45:35;;;;;;;8.23;7.33;;;18.80;99.90;;;;;;4807194;29;20641;-84
2021/09/05 00:48:00;;;;;;;13.77;7.47;;;18.80;99.90;;;;;;4805381;29;20186;-86
2021/09/05 00:50:28;;;;;;;8.67;7.77;;;18.80;99.90;;;;;;4805602;29;20195;-86
2021/09/05 00:52:54;;;;;;;8.70;7.67;;;18.80;99.90;;;;;;4806604;29;20206;-84
2021/09/05 00:55:20;;;;;;;8.83;7.40;;;18.80;99.90;;;;;;4806983;29;20446;-84
2021/09/05 00:57:47;;;;;;;10.13;7.03;;;18.70;99.90;;;;;;4806617;29;20420;-84
2021/09/05 01:00:13;;;;;;;9.90;7.33;;;18.70;99.90;;;;;;4806724;29;20462;-86
2021/09/05 01:02:39;;;;;;;11.13;8.17;;;18.70;99.90;;;;;;4806601;29;20411;-86
2021/09/05 01:05:06;;;;;;;9.77;7.87;;;18.60;99.90;;;;;;4806441;29;20473;-84
2021/09/05 01:07:33;;;;;;;9.67;8.13;;;18.50;99.90;;;;;;4805258;29;20450;-84
2021/09/05 01:09:59;;;;;;;10.10;7.43;;;18.50;99.90;;;;;;4811814;29;20496;-86
2021/09/05 01:12:25;;;;;;;11.60;8.40;;;18.40;99.90;;;;;;4805218;29;20866;-84
2021/09/05 01:14:51;;;;;;;10.70;9.50;;;18.40;99.90;;;;;;4805110;29;20874;-84
2021/09/05 01:17:17;;;;;;;9.77;8.70;;;18.30;99.90;;;;;;4806416;29;20447;-86
2021/09/05 01:19:42;;;;;;;10.17;8.73;;;18.20;99.90;;;;;;4806549;29;20198;-86
2021/09/05 01:22:08;;;;;;;11.83;8.77;;;18.20;99.90;;;;;;4806432;29;20183;-84
2021/09/05 01:24:33;;;;;;;12.23;8.40;;;18.10;99.90;;;;;;4806476;29;20202;-86
2021/09/05 01:26:59;;;;;;;13.27;9.43;;;18.10;99.90;;;;;;4806423;29;20189;-85
2021/09/05 01:29:25;;;;;;;10.80;9.10;;;18.00;99.90;;;;;;4805021;29;20224;-84
2021/09/05 01:31:53;;;;;;;13.30;9.20;;;18.00;99.90;;;;;;4806394;29;20182;-84
2021/09/05 01:34:21;;;;;;;12.00;9.53;;;18.00;99.90;;;;;;4804923;29;20234;-85
2021/09/05 01:36:48;;;;;;;12.83;8.60;;;17.90;99.90;;;;;;4806291;29;20422;-84
2021/09/05 01:39:15;;;;;;;15.20;10.70;;;17.90;99.90;;;;;;4810968;29;21214;-86
2021/09/05 01:41:42;;;;;;;15.13;10.20;;;17.90;99.90;;;;;;4812609;29;20441;-85
2021/09/05 01:44:12;;;;;;;15.10;10.13;;;17.90;99.90;;;;;;4804915;29;20557;-84
2021/09/05 01:46:38;;;;;;;13.97;10.50;;;17.90;99.90;;;;;;4805008;29;20439;-86
2021/09/05 01:49:05;;;;;;;13.80;10.37;;;17.90;99.90;;;;;;4807186;29;20545;-85
2021/09/05 01:51:31;;;;;;;12.07;8.97;;;17.90;99.90;;;;;;4809705;29;20855;-83
2021/09/05 01:53:57;;;;;;;12.87;10.07;;;17.90;99.90;;;;;;4808277;29;20570;-85
2021/09/05 01:56:24;;;;;;;13.67;9.20;;;17.90;99.90;;;;;;4808343;29;20479;-86
2021/09/05 01:58:50;;;;;;;12.93;9.80;;;17.90;99.90;;;;;;4808241;29;20446;-84
2021/09/05 02:01:15;;;;;;;10.60;9.23;;;17.90;99.90;;;;;;4809472;29;20932;-85
2021/09/05 02:03:41;;;;;;;12.50;9.13;;;17.90;99.90;;;;;;4809294;29;20209;-86
2021/09/05 02:06:07;;;;;;;13.70;10.17;;;17.90;99.90;;;;;;4809426;29;20216;-85
2021/09/05 02:08:32;;;;;;;13.07;9.23;;;17.90;99.90;;;;;;4807931;29;20256;-86
2021/09/05 02:10:58;;;;;;;12.17;9.57;;;17.90;99.90;;;;;;4809835;29;20226;-86
2021/09/05 02:13:24;;;;;;;14.10;10.07;;;17.80;99.90;;;;;;4809053;29;20226;-86
2021/09/05 02:15:49;;;;;;;14.83;9.47;;;17.80;99.90;;;;;;4808226;29;20222;-84
2021/09/05 02:18:16;;;;;;;12.40;9.80;;;17.80;99.90;;;;;;4807959;29;20202;-84
2021/09/05 02:20:42;;;;;;;13.00;8.97;;;17.80;99.90;;;;;;4817727;29;20638;-86
2021/09/05 02:23:07;;;;;;;13.80;9.60;;;17.70;99.90;;;;;;4807792;29;20430;-83
2021/09/05 02:25:33;;;;;;;12.10;9.20;;;17.70;99.90;;;;;;4808416;29;20331;-86
2021/09/05 02:27:59;;;;;;;11.13;8.93;;;17.70;99.90;;;;;;4809423;29;20320;-86
2021/09/05 02:30:24;;;;;;;10.47;9.03;;;17.70;99.90;;;;;;4810567;29;20186;-86
2021/09/05 02:32:50;;;;;;;13.23;10.37;;;17.70;99.90;;;;;;4811263;29;20218;-86
2021/09/05 02:35:17;;;;;;;12.80;9.50;;;17.70;99.90;;;;;;4816982;29;20223;-85
2021/09/05 02:37:42;;;;;;;11.70;8.93;;;17.70;99.90;;;;;;4811240;29;20190;-86
2021/09/05 02:40:09;;;;;;;11.73;8.93;;;17.60;99.90;;;;;;4811078;29;20495;-84
2021/09/05 02:42:35;;;;;;;17.13;10.20;;;17.60;99.90;;;;;;4807617;29;20189;-85
2021/09/05 02:45:02;;;;;;;11.30;8.97;;;17.60;99.90;;;;;;4809938;29;20446;-86
2021/09/05 02:47:28;;;;;;;13.23;9.10;;;17.60;99.90;;;;;;4812169;29;20419;-86
2021/09/05 02:49:54;;;;;;;10.83;9.03;;;17.60;99.90;;;;;;4812785;29;20476;-83
2021/09/05 02:52:20;;;;;;;15.53;9.07;;;17.60;99.90;;;;;;4807320;29;20215;-84
2021/09/05 02:54:46;;;;;;;12.40;10.77;;;17.50;99.90;;;;;;4812325;29;20991;-83
2021/09/05 02:57:12;;;;;;;10.80;9.70;;;17.60;99.90;;;;;;4819628;29;20495;-85
2021/09/05 02:59:38;;;;;;;13.43;10.50;;;17.60;99.90;;;;;;4820081;29;20217;-86
2021/09/05 03:02:04;;;;;;;12.57;10.10;;;17.60;99.90;;;;;;4807221;29;20243;-82
2021/09/05 03:04:29;;;;;;;11.60;10.20;;;17.60;99.90;;;;;;4807512;29;20218;-86
2021/09/05 03:06:55;;;;;;;13.80;9.70;;;17.60;99.90;;;;;;4808387;29;20588;-84
2021/09/05 03:09:21;;;;;;;13.23;10.30;;;17.50;99.90;;;;;;4808257;29;20242;-85
2021/09/05 03:11:47;;;;;;;13.23;9.83;;;17.50;99.90;;;;;;4807117;29;20519;-84
2021/09/05 03:14:13;;;;;;;10.13;8.83;;;17.50;99.90;;;;;;4806771;29;20490;-86
2021/09/05 03:16:39;;;;;;;11.87;8.63;;;17.50;99.90;;;;;;4808231;29;20448;-84
2021/09/05 03:19:04;;;;;;;10.97;9.30;;;17.50;99.90;;;;;;4806825;29;20696;-85
2021/09/05 03:21:30;;;;;;;13.20;9.43;;;17.40;99.90;;;;;;4806915;29;20562;-84
2021/09/05 03:23:56;;;;;;;12.70;9.23;;;17.40;99.90;;;;;;4806753;29;20221;-83
2021/09/05 03:26:21;;;;;;;11.33;9.33;;;17.40;99.90;;;;;;4806814;29;20273;-86
2021/09/05 03:28:47;;;;;;;10.23;9.07;;;17.40;99.90;;;;;;4807951;29;20203;-84
2021/09/05 03:31:12;;;;;;;13.23;9.87;;;17.30;99.90;;;;;;4807985;29;20193;-84
2021/09/05 03:33:38;;;;;;;11.17;9.73;;;17.30;99.90;;;;;;4815833;29;20229;-86
2021/09/05 03:36:06;;;;;;;12.00;9.37;;;17.30;99.90;;;;;;4812690;29;20198;-85
2021/09/05 03:38:33;;;;;;;9.10;8.20;;;17.20;99.90;;;;;;4807785;29;20205;-86
2021/09/05 03:40:58;;;;;;;12.93;9.30;;;17.30;99.90;;;;;;4808106;29;20445;-85
2021/09/05 03:43:24;;;;;;;11.43;9.70;;;17.20;99.90;;;;;;4806392;29;20442;-86
2021/09/05 03:45:50;;;;;;;11.80;9.50;;;17.20;99.90;;;;;;4806655;29;20860;-85
2021/09/05 03:48:16;;;;;;;12.37;9.53;;;17.20;99.90;;;;;;4806222;29;20493;-86
2021/09/05 03:50:42;;;;;;;9.93;8.50;;;17.20;99.90;;;;;;4808002;29;20186;-86
2021/09/05 03:53:08;;;;;;;12.50;8.60;;;17.20;99.90;;;;;;4806098;29;20508;-84
2021/09/05 03:55:34;;;;;;;13.67;9.30;;;17.20;99.90;;;;;;4807866;29;20187;-84
2021/09/05 03:58:00;;;;;;;11.03;8.70;;;17.10;99.90;;;;;;4807425;29;20783;-86
2021/09/05 04:00:26;;;;;;;8.83;7.77;;;17.10;99.90;;;;;;4806118;29;20205;-86
2021/09/05 04:02:51;;;;;;;12.30;9.30;;;17.10;99.90;;;;;;4806180;29;20221;-83
2021/09/05 04:05:17;;;;;;;9.67;8.67;;;17.10;99.90;;;;;;4806145;29;20430;-83
2021/09/05 04:10:44;;;;;;;11.33;8.30;;;17.10;99.90;;;;;;4768639;30;20243;-86
2021/09/05 04:13:14;;;;;;;9.63;8.40;;;17.00;99.90;;;;;;4799197;29;20478;-86
2021/09/05 04:15:41;;;;;;;13.13;9.10;;;17.00;99.90;;;;;;4806748;29;20543;-86
2021/09/05 04:18:07;;;;;;;14.50;9.43;;;17.00;99.90;;;;;;4807506;29;20447;-85
2021/09/05 04:20:33;;;;;;;10.17;8.70;;;17.00;99.90;;;;;;4808495;29;20839;-86
2021/09/05 04:22:59;;;;;;;10.50;8.43;;;16.90;99.90;;;;;;4807374;29;20411;-83
2021/09/05 04:25:24;;;;;;;9.80;8.43;;;16.90;99.90;;;;;;4805766;29;20653;-84
2021/09/05 04:27:50;;;;;;;11.30;8.90;;;16.90;99.90;;;;;;4807141;29;20171;-84
2021/09/05 04:30:16;;;;;;;11.27;9.13;;;16.90;99.90;;;;;;4807266;29;20332;-85
2021/09/05 04:32:42;;;;;;;10.57;8.23;;;16.80;99.90;;;;;;4805630;29;20568;-85
2021/09/05 04:35:08;;;;;;;11.10;8.97;;;16.80;99.90;;;;;;4809467;29;20215;-86
2021/09/05 04:37:34;;;;;;;9.97;8.80;;;16.80;99.90;;;;;;4806161;29;20431;-82
2021/09/05 04:39:59;;;;;;;15.40;8.83;;;16.80;99.90;;;;;;4805539;29;20528;-84
2021/09/05 04:42:25;;;;;;;12.13;9.67;;;16.80;99.90;;;;;;4805494;29;20179;-85
2021/09/05 04:44:53;;;;;;;14.73;9.50;;;16.80;99.90;;;;;;4806888;29;20207;-86
2021/09/05 04:47:19;;;;;;;10.20;9.00;;;16.80;99.90;;;;;;4806645;29;20210;-84
2021/09/05 04:49:45;;;;;;;11.60;9.17;;;16.80;99.90;;;;;;4805358;29;21015;-87
2021/09/05 04:52:11;;;;;;;11.93;9.73;;;16.80;99.90;;;;;;4805265;29;20834;-85
2021/09/05 04:54:36;;;;;;;11.53;9.50;;;16.80;99.90;;;;;;4806714;29;20674;-86
2021/09/05 04:57:03;;;;;;;13.07;10.10;;;16.80;99.90;;;;;;4806556;29;20186;-83
2021/09/05 04:59:28;;;;;;;12.67;9.97;;;16.80;99.90;;;;;;4806340;29;20277;-86
2021/09/05 05:01:54;;;;;;;12.20;10.60;;;16.80;99.90;;;;;;4806574;29;20419;-85
2021/09/05 05:04:20;;;;;;;12.27;10.10;;;16.80;99.90;;;;;;4805149;29;20729;-86
2021/09/05 05:06:45;;;;;;;12.20;10.90;;;16.80;99.90;;;;;;4805267;29;20190;-86
2021/09/05 05:09:14;;;;;;;13.47;10.30;;;16.80;99.90;;;;;;4806374;29;20345;-86
2021/09/05 05:11:41;;;;;;;17.90;10.87;;;16.80;99.90;;;;;;4806511;29;20258;-86
2021/09/05 05:14:08;;;;;;;14.53;11.60;;;16.80;99.90;;;;;;4805054;29;20852;-84
2021/09/05 05:16:34;;;;;;;13.17;10.97;;;16.80;99.90;;;;;;4809326;29;20406;-85
2021/09/05 05:19:00;;;;;;;13.60;10.40;;;16.90;99.90;;;;;;4806249;29;20510;-85
2021/09/05 05:21:27;;;;;;;16.00;11.23;;;16.90;99.90;;;;;;4806479;29;20266;-85
2021/09/05 05:23:54;;;;;;;13.27;10.80;;;16.90;99.90;;;;;;4808384;29;20243;-86
2021/09/05 05:26:20;;;;;;;12.67;10.33;;;17.00;99.90;;;;;;4810649;29;20418;-84
2021/09/05 05:28:45;;;;;;;12.87;11.07;;;16.90;99.90;;;;;;4810883;29;20800;-82
2021/09/05 05:31:11;;;;;;;20.07;12.43;;;17.00;99.90;;;;;;4809884;29;20422;-85
2021/09/05 05:33:37;;;;;;;13.10;11.57;;;17.00;99.90;;;;;;4809723;29;20229;-84
2021/09/05 05:36:03;;;;;;;12.40;11.10;;;17.10;99.90;;;;;;4808574;29;20208;-84
2021/09/05 05:38:28;;;;;;;15.03;12.13;;;17.10;99.90;;;;;;4808858;29;20206;-84
2021/09/05 05:40:54;;;;;;;15.70;11.80;;;17.10;99.90;;;;;;4810344;29;20450;-84
2021/09/05 05:43:20;;;;;;;13.37;10.73;;;17.20;99.90;;;;;;4809645;29;20234;-84
2021/09/05 05:45:45;;;;;;;15.10;12.00;;;17.20;99.90;;;;;;4808654;29;20205;-84
2021/09/05 05:48:12;;;;;;;14.43;11.37;;;17.30;99.90;;;;;;4809576;29;20202;-86
2021/09/05 05:50:38;;;;;;;15.67;10.83;;;17.30;99.90;;;;;;4808542;29;20210;-83
2021/09/05 05:53:03;;;;;;;14.03;11.17;;;17.40;99.90;;;;;;4815841;29;20470;-84
2021/09/05 05:55:29;;;;;;;13.40;10.90;;;17.50;99.90;;;;;;4809933;29;20479;-85
2021/09/05 05:57:55;;;;;;;16.33;10.93;;;17.60;99.90;;;;;;4809360;29;20316;-84
2021/09/05 06:00:25;;;;;;;13.30;10.87;;;17.70;99.90;;;;;;4809726;29;20191;-86
2021/09/05 06:02:51;;;;;;;13.10;11.17;;;17.70;99.90;;;;;;4809335;29;20212;-84
2021/09/05 06:05:17;;;;;;;11.37;10.17;;;17.80;99.90;;;;;;4809709;29;20430;-85
2021/09/05 06:07:42;;;;;;;12.53;9.93;;;17.90;99.90;;;;;;4809285;29;20430;-84
2021/09/05 06:10:08;;;;;;;11.63;9.57;;;18.00;99.90;;;;;;4809377;29;20257;-83
2021/09/05 06:12:34;;;;;;;12.97;9.70;;;18.00;99.90;;;;;;4808526;29;20238;-84
2021/09/05 06:14:59;;;;;;;16.90;10.07;;;18.10;99.90;;;;;;4811288;29;20519;-84
2021/09/05 06:17:25;;;;;;;12.90;8.97;;;18.20;99.90;;;;;;4807907;29;20214;-86
2021/09/05 06:19:51;;;;;;;12.27;9.70;;;18.30;99.90;;;;;;4807949;29;20212;-86
2021/09/05 06:22:16;;;;;;;11.13;9.80;;;18.30;99.90;;;;;;4812228;29;20178;-84
2021/09/05 06:24:42;;;;;;;9.43;8.47;;;18.40;99.90;;;;;;4809159;29;20203;-86
2021/09/05 06:27:07;;;;;;;11.63;9.67;;;18.50;99.90;;;;;;4808984;29;20179;-84
2021/09/05 06:29:33;;;;;;;19.07;10.43;;;18.60;99.90;;;;;;4807658;29;20243;-84
2021/09/05 06:31:59;;;;;;;9.60;8.60;;;18.60;99.90;;;;;;4809201;29;20181;-84
2021/09/05 06:34:25;;;;;;;10.70;9.60;;;18.80;99.90;;;;;;4808474;29;20498;-84
2021/09/05 06:36:50;;;;;;;11.87;9.47;;;18.90;99.90;;;;;;4808834;29;20216;-86
2021/09/05 06:39:16;;;;;;;12.17;9.50;;;18.90;99.90;;;;;;4808787;29;20203;-84
2021/09/05 06:41:42;;;;;;;10.13;8.77;;;19.00;99.90;;;;;;4807548;29;20279;-84
2021/09/05 06:44:07;;;;;;;13.10;9.10;;;19.10;99.90;;;;;;4808600;29;20696;-85
2021/09/05 06:46:33;;;;;;;15.93;8.73;;;19.20;99.90;;;;;;4808712;29;20183;-85
2021/09/05 06:48:59;;;;;;;12.30;9.13;;;19.30;99.90;;;;;;4807292;29;20269;-84
2021/09/05 06:51:24;;;;;;;10.03;8.53;;;19.30;99.90;;;;;;4807344;29;20420;-85
2021/09/05 06:53:50;;;;;;;11.10;8.47;;;19.40;99.90;;;;;;4807171;29;20312;-86
2021/09/05 06:56:16;;;;;;;10.77;8.80;;;19.50;99.90;;;;;;4808483;29;20226;-84
2021/09/05 06:58:41;;;;;;;12.23;9.10;;;19.60;99.90;;;;;;4808345;29;20204;-86
2021/09/05 07:01:07;;;;;;;11.17;8.70;;;19.60;99.90;;;;;;4819007;29;20190;-86
2021/09/05 07:03:33;;;;;;;10.53;8.43;;;19.70;99.90;;;;;;4823208;29;20211;-86
2021/09/05 07:05:58;;;;;;;10.80;8.30;;;19.80;99.90;;;;;;4823812;29;20333;-85
2021/09/05 07:08:24;;;;;;;9.67;8.30;;;19.90;99.90;;;;;;4825013;29;20205;-84
2021/09/05 07:10:50;;;;;;;9.30;7.80;;;20.00;99.90;;;;;;4824616;29;20231;-85
2021/09/05 07:13:16;;;;;;;11.17;8.93;;;20.10;99.90;;;;;;4832411;29;20250;-85
2021/09/05 07:15:41;;;;;;;12.30;8.67;;;20.10;99.90;;;;;;4829699;29;20204;-88
2021/09/05 07:18:07;;;;;;;9.97;8.43;;;20.20;99.90;;;;;;4825864;29;20421;-87
2021/09/05 07:20:32;;;;;;;8.83;7.80;;;20.30;99.90;;;;;;4830729;29;20196;-89
2021/09/05 07:22:58;;;;;;;11.03;7.00;;;20.40;99.90;;;;;;4824813;29;20187;-86
2021/09/05 07:25:26;;;;;;;8.80;7.80;;;20.50;99.90;;;;;;4825340;29;20196;-88
2021/09/05 07:27:53;;;;;;;7.80;6.77;;;20.50;99.90;;;;;;4826356;29;20184;-90
2021/09/05 07:30:19;;;;;;;9.00;7.70;;;20.60;99.90;;;;;;4825081;29;20456;-88
2021/09/05 07:32:44;;;;;;;9.03;7.70;;;20.70;99.90;;;;;;4825270;29;20561;-86
2021/09/05 07:35:10;;;;;;;9.13;6.83;;;20.80;99.90;;;;;;4829127;29;20469;-86
2021/09/05 07:37:37;;;;;;;9.17;6.97;;;20.90;99.90;;;;;;4826850;29;20192;-87
2021/09/05 07:40:04;;;;;;;8.93;7.03;;;20.90;99.90;;;;;;4828951;29;20445;-88
2021/09/05 07:42:30;;;;;;;7.90;7.10;;;21.00;99.90;;;;;;4829504;29;20409;-89
2021/09/05 07:44:57;;;;;;;7.30;6.60;;;21.10;99.90;;;;;;4824678;29;20461;-86
2021/09/05 07:47:23;;;;;;;9.07;7.80;;;21.20;99.90;;;;;;4824278;29;20547;-85
2021/09/05 07:49:49;;;;;;;8.50;7.60;;;21.30;99.90;;;;;;4825776;29;20461;-89
2021/09/05 07:52:15;;;;;;;10.40;6.50;;;21.40;99.90;;;;;;4824513;29;20421;-84
2021/09/05 07:54:40;;;;;;;6.83;6.13;;;21.40;99.90;;;;;;4824917;29;20211;-86
2021/09/05 07:57:06;;;;;;;8.53;6.70;;;21.50;99.90;;;;;;4824520;29;20186;-84
2021/09/05 07:59:32;;;;;;;8.00;7.20;;;21.60;99.90;;;;;;4824554;29;20198;-89
2021/09/05 08:01:57;;;;;;;7.40;6.60;;;21.70;99.90;;;;;;4833082;29;20602;-87
2021/09/05 08:04:23;;;;;;;8.13;6.07;;;21.80;99.90;;;;;;4824245;29;20676;-87
2021/09/05 08:06:49;;;;;;;8.93;6.53;;;21.80;99.90;;;;;;4827072;29;20186;-83
2021/09/05 08:09:14;;;;;;;7.23;6.50;;;21.90;99.90;;;;;;4825691;29;20245;-87
2021/09/05 08:11:40;;;;;;;8.93;6.77;;;22.10;99.90;;;;;;4824318;29;20717;-87
2021/09/05 08:14:05;;;;;;;8.40;6.73;;;22.20;99.90;;;;;;4825257;29;20268;-87
2021/09/05 08:16:33;;;;;;;7.00;6.20;;;22.30;99.90;;;;;;4824221;29;20193;-86
2021/09/05 08:18:58;;;;;;;8.70;7.00;;;22.30;99.90;;;;;;4824021;29;20243;-86
2021/09/05 08:21:24;;;;;;;10.33;7.97;;;22.50;99.90;;;;;;4825312;29;20418;-87
2021/09/05 08:23:50;;;;;;;7.30;5.97;;;22.60;99.90;;;;;;4824100;29;21012;-86
2021/09/05 08:26:16;;;;;;;8.10;6.43;;;22.70;99.90;;;;;;4825269;29;20185;-87
2021/09/05 08:28:41;;;;;;;8.37;7.40;;;22.80;99.90;;;;;;4823901;29;20229;-87
2021/09/05 08:31:08;;;;;;;8.47;7.07;;;22.90;99.90;;;;;;4825157;29;20185;-86
2021/09/05 08:33:33;;;;;;;7.20;6.50;;;23.00;99.90;;;;;;4827014;29;20316;-86
2021/09/05 08:35:59;;;;;;;8.20;6.90;;;23.10;99.90;;;;;;4840641;29;20437;-86
2021/09/05 08:38:25;;;;;;;7.40;6.70;;;23.40;99.90;;;;;;4825070;29;20206;-87
2021/09/05 08:40:51;;;;;;;7.13;6.00;;;23.80;99.90;;;;;;4823777;29;20670;-86
2021/09/05 08:43:20;;;;;;;6.40;5.80;;;24.60;99.90;;;;;;4823948;29;20511;-86
2021/09/05 08:45:46;;;;;;;6.47;5.77;;;25.30;99.90;;;;;;4827134;29;20440;-86
2021/09/05 08:48:15;;;;;;;7.03;5.97;;;25.90;99.90;;;;;;4830914;29;20467;-87
2021/09/05 08:50:41;;;;;;;9.03;5.33;;;26.30;99.90;;;;;;4831802;29;20199;-86
2021/09/05 08:53:08;;;;;;;7.07;6.07;;;26.40;99.90;;;;;;4823603;29;20540;-86
2021/09/05 08:55:34;;;;;;;7.10;6.40;;;26.50;99.90;;;;;;4825369;29;20429;-86
2021/09/05 08:58:00;;;;;;;10.67;6.40;;;26.40;99.90;;;;;;4824680;29;20419;-86
2021/09/05 09:00:26;;;;;;;6.03;5.33;;;26.20;99.90;;;;;;4825285;29;20484;-87
2021/09/05 09:02:54;;;;;;;6.50;5.70;;;26.10;99.90;;;;;;4824774;29;20181;-87
2021/09/05 09:05:34;;;;;;;6.67;5.80;;;25.90;99.90;;;;;;4825161;29;20436;-86
2021/09/05 09:08:05;;;;;;;7.70;6.30;;;25.80;99.90;;;;;;4827698;29;20420;-86
2021/09/05 09:10:32;;;;;;;7.40;6.20;;;25.70;99.90;;;;;;4823243;29;21035;-87
2021/09/05 09:12:58;;;;;;;7.17;6.30;;;25.60;99.90;;;;;;4822420;29;20476;-86
2021/09/05 09:15:24;;;;;;;6.97;5.63;;;25.50;99.90;;;;;;4822382;29;20476;-87
2021/09/05 09:18:04;;;;;;;6.50;5.90;;;25.40;99.90;;;;;;4818758;29;20478;-86
2021/09/05 09:20:37;;;;;;;7.10;6.40;;;25.40;99.90;;;;;;4821986;29;20239;-86
2021/09/05 09:23:14;;;;;;;8.17;6.60;;;25.40;99.90;;;;;;4824012;29;20404;-86
2021/09/05 09:25:55;;;;;;;9.23;6.80;;;25.30;99.90;;;;;;4823035;29;20478;-86
2021/09/05 09:28:44;;;;;;;8.37;6.60;;;25.30;99.90;;;;;;4822762;29;20500;-87
2021/09/05 09:31:28;;;;;;;6.90;6.27;;;25.20;99.90;;;;;;4826886;29;20443;-86
2021/09/05 09:33:58;;;;;;;8.77;5.90;;;25.20;99.90;;;;;;4829471;29;20481;-86
2021/09/05 09:36:26;;;;;;;7.60;6.90;;;25.20;99.90;;;;;;4824653;29;20901;-85
2021/09/05 09:38:58;;;;;;;6.60;5.80;;;25.10;99.90;;;;;;4823223;29;21036;-86
2021/09/05 09:41:31;;;;;;;6.30;5.70;;;25.10;99.90;;;;;;4825078;29;20432;-85
2021/09/05 09:43:58;;;;;;;7.93;5.53;;;25.10;99.90;;;;;;4825520;29;20471;-86
2021/09/05 09:46:26;;;;;;;6.03;5.30;;;25.10;99.90;;;;;;4824383;29;20419;-87
2021/09/05 09:48:57;;;;;;;7.00;6.10;;;25.00;99.90;;;;;;4824303;29;20435;-86
2021/09/05 09:51:24;;;;;;;8.80;5.70;;;25.10;99.90;;;;;;4823161;29;20823;-87
2021/09/05 09:53:51;;;;;;;7.57;6.87;;;25.00;99.90;;;;;;4822919;29;20545;-87
2021/09/05 09:56:18;;;;;;;6.83;6.13;;;25.00;99.90;;;;;;4824218;29;20470;-86
2021/09/05 09:59:01;;;;;;;6.17;5.57;;;25.00;99.90;;;;;;4830050;29;20448;-86
2021/09/05 10:01:29;;;;;;;6.57;5.83;;;25.00;99.90;;;;;;4824992;29;20947;-87
2021/09/05 10:03:57;;;;;;;7.37;6.00;;;25.10;99.90;;;;;;4827197;29;21031;-87
2021/09/05 10:06:25;;;;;;;6.57;5.70;;;25.10;99.90;;;;;;4828503;29;20422;-87
2021/09/05 10:08:55;;;;;;;6.57;5.97;;;25.20;99.90;;;;;;4824340;29;20497;-86
2021/09/05 10:11:22;;;;;;;7.57;6.40;;;25.20;99.90;;;;;;4827336;29;20405;-86
2021/09/05 10:13:49;;;;;;;6.83;6.17;;;25.20;99.90;;;;;;4825835;29;20495;-86
2021/09/05 10:16:14;;;;;;;7.97;6.20;;;25.20;99.90;;;;;;4825376;29;20444;-86
2021/09/05 10:18:45;;;;;;;7.97;6.67;;;25.20;99.90;;;;;;4826547;29;20444;-87
2021/09/05 10:21:17;;;;;;;9.20;6.60;;;25.20;99.90;;;;;;4825704;29;20235;-86
2021/09/05 10:23:52;;;;;;;7.00;5.80;;;25.20;99.90;;;;;;4824656;29;20446;-87
2021/09/05 10:26:19;;;;;;;8.00;6.20;;;25.30;99.90;;;;;;4827090;29;20962;-87
2021/09/05 10:28:53;;;;;;;6.60;5.70;;;25.30;99.90;;;;;;4825777;29;20852;-86
2021/09/05 10:31:22;;;;;;;6.83;5.23;;;25.30;99.90;;;;;;4825805;29;20431;-87
2021/09/05 10:33:47;;;;;;;7.60;5.80;;;25.30;99.90;;;;;;4827312;29;20548;-86
2021/09/05 10:36:15;;;;;;;5.70;5.10;;;25.30;99.90;;;;;;4831231;29;20409;-86
2021/09/05 10:38:43;;;;;;;8.43;6.30;;;25.40;99.90;;;;;;4825700;29;20209;-87
2021/09/05 10:41:19;;;;;;;6.47;5.67;;;25.40;99.90;;;;;;4825566;29;20457;-86
2021/09/05 10:44:03;;;;;;;8.00;5.43;;;25.50;99.10;;;;;;4826793;29;20437;-87
2021/09/05 10:46:44;;;;;;;6.10;5.43;;;25.60;99.30;;;;;;4824664;29;20429;-87
2021/09/05 10:49:10;;;;;;;5.60;5.10;;;25.60;99.50;;;;;;4825808;29;20509;-87
2021/09/05 10:51:40;;;;;;;9.87;6.10;;;25.70;98.10;;;;;;4832124;29;20425;-86
2021/09/05 10:54:23;;;;;;;5.93;5.37;;;25.70;99.20;;;;;;4833269;29;20581;-87
2021/09/05 10:56:49;;;;;;;7.73;6.57;;;25.70;99.30;;;;;;4830782;29;20420;-87
2021/09/05 10:59:21;;;;;;;6.20;5.60;;;25.70;99.00;;;;;;4829002;29;20479;-86
2021/09/05 11:01:47;;;;;;;6.40;5.73;;;25.80;99.10;;;;;;4825575;29;20276;-87
2021/09/05 11:04:15;;;;;;;7.00;5.97;;;25.80;99.40;;;;;;4825925;29;20515;-87
2021/09/05 11:07:05;;;;;;;5.97;5.37;;;25.80;98.70;;;;;;4833048;29;20210;-87
2021/09/05 11:09:49;;;;;;;7.90;5.83;;;25.90;98.60;;;;;;4827218;29;20499;-88
2021/09/05 11:12:33;;;;;;;7.37;5.67;;;26.00;97.10;;;;;;4824977;29;20429;-87
2021/09/05 11:15:00;;;;;;;6.50;5.87;;;26.00;97.70;;;;;;4825143;29;20484;-86
2021/09/05 11:17:29;;;;;;;8.70;5.93;;;26.00;98.30;;;;;;4825123;29;20440;-87
2021/09/05 11:20:07;;;;;;;6.93;6.00;;;26.00;98.20;;;;;;4826056;29;20479;-86
2021/09/05 11:22:41;;;;;;;9.13;6.23;;;26.00;98.40;;;;;;4825809;29;20450;-87
2021/09/05 11:25:17;;;;;;;6.70;6.10;;;26.00;98.40;;;;;;4826471;29;20944;-86
2021/09/05 11:28:01;;;;;;;6.80;5.50;;;26.10;97.60;;;;;;4824990;29;21011;-86
2021/09/05 11:30:38;;;;;;;7.03;5.80;;;26.10;98.10;;;;;;4826613;29;20436;-87
2021/09/05 11:33:09;;;;;;;6.77;6.07;;;26.20;97.90;;;;;;4824975;29;20476;-85
2021/09/05 11:35:44;;;;;;;7.00;6.30;;;26.10;98.10;;;;;;4829463;29;20448;-86
2021/09/05 11:38:11;;;;;;;7.00;6.30;;;26.10;98.20;;;;;;4825127;29;20803;-86
2021/09/05 11:40:52;;;;;;;5.87;5.30;;;26.10;98.10;;;;;;4830393;29;20975;-88
2021/09/05 11:43:39;;;;;;;6.17;5.53;;;26.10;98.00;;;;;;4835064;29;21121;-87
2021/09/05 11:46:14;;;;;;;5.90;5.30;;;26.10;96.90;;;;;;4825924;29;20425;-88
2021/09/05 11:48:39;;;;;;;6.23;5.63;;;26.10;97.00;;;;;;4825690;29;20497;-87
2021/09/05 11:51:05;;;;;;;7.00;5.67;;;26.10;97.60;;;;;;4824573;29;20503;-87
2021/09/05 11:53:31;;;;;;;5.60;5.00;;;26.10;97.80;;;;;;4825712;29;20719;-87
2021/09/05 11:55:57;;;;;;;9.23;5.73;;;26.10;97.30;;;;;;4824687;29;20656;-87
2021/09/05 11:58:22;;;;;;;6.03;5.43;;;26.10;97.60;;;;;;4824309;29;20215;-88
2021/09/05 12:00:54;;;;;;;6.63;5.63;;;26.00;97.70;;;;;;4825468;29;20437;-87
2021/09/05 12:03:24;;;;;;;8.27;6.33;;;26.00;97.80;;;;;;4827152;29;20262;-87
2021/09/05 12:05:54;;;;;;;7.07;5.23;;;26.00;97.80;;;;;;4824592;29;20440;-87
2021/09/05 12:08:20;;;;;;;6.73;6.13;;;26.00;97.80;;;;;;4824210;29;20445;-88
2021/09/05 12:10:46;;;;;;;6.73;5.97;;;25.90;97.90;;;;;;4825761;29;20994;-87
2021/09/05 12:13:14;;;;;;;8.37;5.80;;;25.90;97.70;;;;;;4825298;29;20481;-88
2021/09/05 12:15:49;;;;;;;8.53;5.80;;;25.90;97.70;;;;;;4824420;29;20450;-87
2021/09/05 12:18:16;;;;;;;5.70;5.10;;;25.90;97.80;;;;;;4823081;29;20464;-87
2021/09/05 12:20:44;;;;;;;7.53;5.93;;;25.90;97.80;;;;;;4823925;29;20978;-87
2021/09/05 12:23:23;;;;;;;8.33;6.03;;;25.90;97.80;;;;;;4822805;29;20645;-88
2021/09/05 12:25:49;;;;;;;8.73;5.77;;;25.90;98.10;;;;;;4823457;29;20967;-87
2021/09/05 12:28:29;;;;;;;6.30;5.70;;;25.90;97.80;;;;;;4825226;29;20433;-87
2021/09/05 12:31:02;;;;;;;5.97;5.37;;;25.90;98.10;;;;;;4831590;29;20460;-87
2021/09/05 12:33:27;;;;;;;6.70;5.20;;;25.80;97.80;;;;;;4832790;29;20587;-87
2021/09/05 12:36:21;;;;;;;6.13;5.57;;;25.80;97.60;;;;;;4824989;29;20488;-87
2021/09/05 12:38:56;;;;;;;7.93;6.70;;;25.80;97.30;;;;;;4823843;29;20641;-87
2021/09/05 12:41:30;;;;;;;8.63;5.80;;;25.80;96.60;;;;;;4823377;29;20404;-88
2021/09/05 12:43:58;;;;;;;5.60;5.10;;;25.90;97.40;;;;;;4821763;29;20535;-88
2021/09/05 12:46:36;;;;;;;6.90;5.43;;;25.80;97.40;;;;;;4821840;29;20501;-88